sensor_id;sensor_type;location;lat;lon;timestamp;P1;durP1;ratioP1;P2;durP2;ratioP2
55931;SDS011;41837;55.700;37.984;2023-02-28T00:00:13;18.67;;;8.32;;
55931;SDS011;41837;55.700;37.984;2023-02-28T00:02:41;16.50;;;8.05;;
55931;SDS011;41837;55.700;37.984;2023-02-28T00:05:10;21.58;;;8.15;;
55931;SDS011;41837;55.700;37.984;2023-02-28T00:07:37;19.42;;;8.88;;
55931;SDS011;41837;55.700;37.984;2023-02-28T00:10:06;17.05;;;7.43;;
55931;SDS011;41837;55.700;37.984;2023-02-28T00:12:34;18.13;;;8.00;;
55931;SDS011;41837;55.700;37.984;2023-02-28T00:15:02;17.08;;;7.60;;
55931;SDS011;41837;55.700;37.984;2023-02-28T00:17:31;14.65;;;6.85;;
55931;SDS011;41837;55.700;37.984;2023-02-28T00:19:58;16.85;;;7.80;;
55931;SDS011;41837;55.700;37.984;2023-02-28T00:22:38;18.58;;;8.40;;
55931;SDS011;41837;55.700;37.984;2023-02-28T00:25:06;20.23;;;8.18;;
55931;SDS011;41837;55.700;37.984;2023-02-28T00:27:34;17.13;;;7.35;;
55931;SDS011;41837;55.700;37.984;2023-02-28T00:30:03;18.25;;;7.97;;
55931;SDS011;41837;55.700;37.984;2023-02-28T00:32:31;17.10;;;7.55;;
55931;SDS011;41837;55.700;37.984;2023-02-28T00:34:57;16.80;;;8.23;;
55931;SDS011;41837;55.700;37.984;2023-02-28T00:37:23;21.73;;;8.73;;
55931;SDS011;41837;55.700;37.984;2023-02-28T00:39:49;21.13;;;8.52;;
55931;SDS011;41837;55.700;37.984;2023-02-28T00:42:16;21.73;;;8.40;;
55931;SDS011;41837;55.700;37.984;2023-02-28T00:44:42;19.98;;;8.20;;
55931;SDS011;41837;55.700;37.984;2023-02-28T00:47:10;18.05;;;7.78;;
55931;SDS011;41837;55.700;37.984;2023-02-28T00:49:36;22.40;;;8.50;;
55931;SDS011;41837;55.700;37.984;2023-02-28T00:52:03;18.77;;;7.88;;
55931;SDS011;41837;55.700;37.984;2023-02-28T00:54:29;17.42;;;8.32;;
55931;SDS011;41837;55.700;37.984;2023-02-28T00:56:55;20.58;;;8.63;;
55931;SDS011;41837;55.700;37.984;2023-02-28T00:59:21;15.93;;;6.90;;
55931;SDS011;41837;55.700;37.984;2023-02-28T01:01:48;19.30;;;8.68;;
55931;SDS011;41837;55.700;37.984;2023-02-28T01:04:14;18.20;;;8.85;;
55931;SDS011;41837;55.700;37.984;2023-02-28T01:06:41;19.13;;;8.50;;
55931;SDS011;41837;55.700;37.984;2023-02-28T01:09:10;18.42;;;8.20;;
55931;SDS011;41837;55.700;37.984;2023-02-28T01:11:36;21.55;;;8.45;;
55931;SDS011;41837;55.700;37.984;2023-02-28T01:14:03;19.98;;;9.18;;
55931;SDS011;41837;55.700;37.984;2023-02-28T01:16:30;21.95;;;9.15;;
55931;SDS011;41837;55.700;37.984;2023-02-28T01:18:56;19.13;;;8.88;;
55931;SDS011;41837;55.700;37.984;2023-02-28T01:21:24;23.05;;;9.75;;
55931;SDS011;41837;55.700;37.984;2023-02-28T01:23:50;20.08;;;9.05;;
55931;SDS011;41837;55.700;37.984;2023-02-28T01:26:18;23.83;;;10.07;;
55931;SDS011;41837;55.700;37.984;2023-02-28T01:28:47;23.33;;;9.75;;
55931;SDS011;41837;55.700;37.984;2023-02-28T01:31:14;25.23;;;10.60;;
55931;SDS011;41837;55.700;37.984;2023-02-28T01:33:41;24.60;;;9.93;;
55931;SDS011;41837;55.700;37.984;2023-02-28T01:36:19;23.17;;;9.75;;
55931;SDS011;41837;55.700;37.984;2023-02-28T01:38:47;19.92;;;9.77;;
55931;SDS011;41837;55.700;37.984;2023-02-28T01:41:23;21.60;;;9.68;;
55931;SDS011;41837;55.700;37.984;2023-02-28T01:43:56;21.63;;;10.55;;
55931;SDS011;41837;55.700;37.984;2023-02-28T01:46:29;25.90;;;10.35;;
55931;SDS011;41837;55.700;37.984;2023-02-28T01:49:11;20.73;;;9.50;;
55931;SDS011;41837;55.700;37.984;2023-02-28T01:51:41;22.35;;;9.30;;
55931;SDS011;41837;55.700;37.984;2023-02-28T01:54:17;18.85;;;7.85;;
55931;SDS011;41837;55.700;37.984;2023-02-28T01:56:55;17.85;;;8.13;;
55931;SDS011;41837;55.700;37.984;2023-02-28T01:59:33;21.15;;;9.32;;
55931;SDS011;41837;55.700;37.984;2023-02-28T02:02:02;18.15;;;9.15;;
55931;SDS011;41837;55.700;37.984;2023-02-28T02:04:32;21.83;;;9.90;;
55931;SDS011;41837;55.700;37.984;2023-02-28T02:07:03;20.98;;;9.63;;
55931;SDS011;41837;55.700;37.984;2023-02-28T02:09:30;21.63;;;9.40;;
55931;SDS011;41837;55.700;37.984;2023-02-28T02:11:56;25.80;;;10.15;;
55931;SDS011;41837;55.700;37.984;2023-02-28T02:26:03;21.40;;;9.82;;
55931;SDS011;41837;55.700;37.984;2023-02-28T02:28:55;22.23;;;10.20;;
55931;SDS011;41837;55.700;37.984;2023-02-28T02:37:15;24.08;;;9.68;;
55931;SDS011;41837;55.700;37.984;2023-02-28T02:39:53;21.45;;;9.32;;
55931;SDS011;41837;55.700;37.984;2023-02-28T02:42:28;19.10;;;8.48;;
55931;SDS011;41837;55.700;37.984;2023-02-28T02:48:09;22.40;;;8.65;;
55931;SDS011;41837;55.700;37.984;2023-02-28T02:50:39;18.88;;;7.22;;
55931;SDS011;41837;55.700;37.984;2023-02-28T02:53:10;19.98;;;7.95;;
55931;SDS011;41837;55.700;37.984;2023-02-28T02:55:39;21.13;;;9.00;;
55931;SDS011;41837;55.700;37.984;2023-02-28T02:58:10;20.08;;;8.60;;
55931;SDS011;41837;55.700;37.984;2023-02-28T03:00:46;20.00;;;8.50;;
55931;SDS011;41837;55.700;37.984;2023-02-28T03:05:47;17.42;;;6.95;;
55931;SDS011;41837;55.700;37.984;2023-02-28T03:08:15;18.85;;;7.72;;
55931;SDS011;41837;55.700;37.984;2023-02-28T03:10:43;17.35;;;7.15;;
55931;SDS011;41837;55.700;37.984;2023-02-28T03:21:23;16.75;;;6.97;;
55931;SDS011;41837;55.700;37.984;2023-02-28T03:26:33;21.77;;;8.30;;
55931;SDS011;41837;55.700;37.984;2023-02-28T03:29:15;18.25;;;7.32;;
55931;SDS011;41837;55.700;37.984;2023-02-28T03:31:55;16.85;;;6.97;;
55931;SDS011;41837;55.700;37.984;2023-02-28T03:34:29;17.63;;;7.82;;
55931;SDS011;41837;55.700;37.984;2023-02-28T03:37:04;19.17;;;7.53;;
55931;SDS011;41837;55.700;37.984;2023-02-28T03:39:43;16.98;;;7.22;;
55931;SDS011;41837;55.700;37.984;2023-02-28T03:42:20;16.38;;;6.57;;
55931;SDS011;41837;55.700;37.984;2023-02-28T03:47:38;21.83;;;6.72;;
55931;SDS011;41837;55.700;37.984;2023-02-28T03:50:17;14.35;;;5.68;;
55931;SDS011;41837;55.700;37.984;2023-02-28T03:52:48;13.77;;;6.45;;
55931;SDS011;41837;55.700;37.984;2023-02-28T03:55:19;16.05;;;6.57;;
55931;SDS011;41837;55.700;37.984;2023-02-28T04:00:21;14.75;;;5.97;;
55931;SDS011;41837;55.700;37.984;2023-02-28T04:02:58;14.30;;;5.72;;
55931;SDS011;41837;55.700;37.984;2023-02-28T04:05:24;17.70;;;7.47;;
55931;SDS011;41837;55.700;37.984;2023-02-28T04:07:52;15.18;;;6.97;;
55931;SDS011;41837;55.700;37.984;2023-02-28T04:10:19;19.77;;;8.73;;
55931;SDS011;41837;55.700;37.984;2023-02-28T04:12:46;13.43;;;6.28;;
55931;SDS011;41837;55.700;37.984;2023-02-28T04:15:12;14.13;;;6.32;;
55931;SDS011;41837;55.700;37.984;2023-02-28T04:17:38;14.45;;;6.78;;
55931;SDS011;41837;55.700;37.984;2023-02-28T04:20:05;13.23;;;5.78;;
55931;SDS011;41837;55.700;37.984;2023-02-28T04:22:35;13.27;;;5.55;;
55931;SDS011;41837;55.700;37.984;2023-02-28T04:25:02;14.13;;;5.63;;
55931;SDS011;41837;55.700;37.984;2023-02-28T04:27:28;11.98;;;5.38;;
55931;SDS011;41837;55.700;37.984;2023-02-28T04:29:55;13.02;;;6.07;;
55931;SDS011;41837;55.700;37.984;2023-02-28T04:32:21;11.48;;;5.32;;
55931;SDS011;41837;55.700;37.984;2023-02-28T04:34:47;13.18;;;5.88;;
55931;SDS011;41837;55.700;37.984;2023-02-28T04:37:13;10.45;;;5.40;;
55931;SDS011;41837;55.700;37.984;2023-02-28T04:39:40;13.25;;;5.70;;
55931;SDS011;41837;55.700;37.984;2023-02-28T04:42:06;15.20;;;5.90;;
55931;SDS011;41837;55.700;37.984;2023-02-28T04:44:33;13.38;;;5.20;;
55931;SDS011;41837;55.700;37.984;2023-02-28T04:46:59;12.85;;;5.95;;
55931;SDS011;41837;55.700;37.984;2023-02-28T04:49:26;19.90;;;8.52;;
55931;SDS011;41837;55.700;37.984;2023-02-28T04:51:52;24.38;;;11.32;;
55931;SDS011;41837;55.700;37.984;2023-02-28T04:54:19;15.10;;;8.02;;
55931;SDS011;41837;55.700;37.984;2023-02-28T04:56:45;9.80;;;5.30;;
55931;SDS011;41837;55.700;37.984;2023-02-28T04:59:11;14.38;;;6.28;;
55931;SDS011;41837;55.700;37.984;2023-02-28T05:01:38;16.30;;;6.45;;
55931;SDS011;41837;55.700;37.984;2023-02-28T05:04:04;17.67;;;7.30;;
55931;SDS011;41837;55.700;37.984;2023-02-28T05:06:31;9.98;;;5.75;;
55931;SDS011;41837;55.700;37.984;2023-02-28T05:08:59;7.38;;;4.43;;
55931;SDS011;41837;55.700;37.984;2023-02-28T05:13:55;7.78;;;4.60;;
55931;SDS011;41837;55.700;37.984;2023-02-28T05:16:21;7.10;;;4.03;;
55931;SDS011;41837;55.700;37.984;2023-02-28T05:18:47;7.53;;;4.47;;
55931;SDS011;41837;55.700;37.984;2023-02-28T05:21:26;8.70;;;4.60;;
55931;SDS011;41837;55.700;37.984;2023-02-28T05:24:00;7.75;;;4.38;;
55931;SDS011;41837;55.700;37.984;2023-02-28T05:26:29;7.85;;;4.10;;
55931;SDS011;41837;55.700;37.984;2023-02-28T05:28:56;8.65;;;4.30;;
55931;SDS011;41837;55.700;37.984;2023-02-28T05:31:22;7.05;;;3.83;;
55931;SDS011;41837;55.700;37.984;2023-02-28T05:33:48;12.98;;;5.30;;
55931;SDS011;41837;55.700;37.984;2023-02-28T05:36:15;7.90;;;4.75;;
55931;SDS011;41837;55.700;37.984;2023-02-28T05:38:41;8.07;;;4.47;;
55931;SDS011;41837;55.700;37.984;2023-02-28T05:41:08;18.52;;;8.15;;
55931;SDS011;41837;55.700;37.984;2023-02-28T05:43:36;8.00;;;4.30;;
55931;SDS011;41837;55.700;37.984;2023-02-28T05:46:06;7.85;;;4.20;;
55931;SDS011;41837;55.700;37.984;2023-02-28T05:48:36;7.22;;;4.38;;
55931;SDS011;41837;55.700;37.984;2023-02-28T05:51:04;10.63;;;4.72;;
55931;SDS011;41837;55.700;37.984;2023-02-28T05:53:30;9.65;;;5.18;;
55931;SDS011;41837;55.700;37.984;2023-02-28T05:55:57;8.70;;;4.60;;
55931;SDS011;41837;55.700;37.984;2023-02-28T05:58:23;6.65;;;3.88;;
55931;SDS011;41837;55.700;37.984;2023-02-28T06:00:56;7.85;;;4.35;;
55931;SDS011;41837;55.700;37.984;2023-02-28T06:03:27;7.32;;;4.55;;
55931;SDS011;41837;55.700;37.984;2023-02-28T06:05:53;9.30;;;5.20;;
55931;SDS011;41837;55.700;37.984;2023-02-28T06:08:20;6.53;;;4.05;;
55931;SDS011;41837;55.700;37.984;2023-02-28T06:10:46;6.82;;;4.72;;
55931;SDS011;41837;55.700;37.984;2023-02-28T06:13:12;7.72;;;4.82;;
55931;SDS011;41837;55.700;37.984;2023-02-28T06:15:38;8.52;;;4.93;;
55931;SDS011;41837;55.700;37.984;2023-02-28T06:18:04;8.32;;;4.32;;
55931;SDS011;41837;55.700;37.984;2023-02-28T06:20:30;9.88;;;5.13;;
55931;SDS011;41837;55.700;37.984;2023-02-28T06:22:57;6.53;;;4.40;;
55931;SDS011;41837;55.700;37.984;2023-02-28T06:25:27;7.57;;;4.53;;
55931;SDS011;41837;55.700;37.984;2023-02-28T06:27:53;9.52;;;4.13;;
55931;SDS011;41837;55.700;37.984;2023-02-28T06:30:20;10.18;;;4.38;;
55931;SDS011;41837;55.700;37.984;2023-02-28T06:32:53;8.35;;;4.20;;
55931;SDS011;41837;55.700;37.984;2023-02-28T06:35:19;7.18;;;4.18;;
55931;SDS011;41837;55.700;37.984;2023-02-28T06:37:45;9.15;;;4.03;;
55931;SDS011;41837;55.700;37.984;2023-02-28T06:40:12;8.23;;;3.95;;
55931;SDS011;41837;55.700;37.984;2023-02-28T06:42:39;12.48;;;4.38;;
55931;SDS011;41837;55.700;37.984;2023-02-28T06:45:05;9.57;;;4.82;;
55931;SDS011;41837;55.700;37.984;2023-02-28T06:47:35;8.13;;;4.07;;
55931;SDS011;41837;55.700;37.984;2023-02-28T06:50:02;9.05;;;4.25;;
55931;SDS011;41837;55.700;37.984;2023-02-28T06:52:29;8.70;;;4.68;;
55931;SDS011;41837;55.700;37.984;2023-02-28T06:54:55;9.60;;;3.70;;
55931;SDS011;41837;55.700;37.984;2023-02-28T06:57:27;7.32;;;3.45;;
55931;SDS011;41837;55.700;37.984;2023-02-28T06:59:58;8.20;;;3.67;;
55931;SDS011;41837;55.700;37.984;2023-02-28T07:02:26;8.68;;;5.15;;
55931;SDS011;41837;55.700;37.984;2023-02-28T07:04:53;7.28;;;3.85;;
55931;SDS011;41837;55.700;37.984;2023-02-28T07:07:19;9.20;;;4.28;;
55931;SDS011;41837;55.700;37.984;2023-02-28T07:09:46;11.82;;;4.05;;
55931;SDS011;41837;55.700;37.984;2023-02-28T07:12:12;8.88;;;4.03;;
55931;SDS011;41837;55.700;37.984;2023-02-28T07:14:39;7.78;;;3.70;;
55931;SDS011;41837;55.700;37.984;2023-02-28T07:17:06;5.70;;;3.45;;
55931;SDS011;41837;55.700;37.984;2023-02-28T07:19:33;5.85;;;3.28;;
55931;SDS011;41837;55.700;37.984;2023-02-28T07:21:59;5.97;;;3.38;;
55931;SDS011;41837;55.700;37.984;2023-02-28T07:24:26;6.60;;;3.60;;
55931;SDS011;41837;55.700;37.984;2023-02-28T07:26:53;6.78;;;3.97;;
55931;SDS011;41837;55.700;37.984;2023-02-28T07:29:19;8.20;;;4.07;;
55931;SDS011;41837;55.700;37.984;2023-02-28T07:31:46;6.88;;;3.83;;
55931;SDS011;41837;55.700;37.984;2023-02-28T07:34:12;6.43;;;3.80;;
55931;SDS011;41837;55.700;37.984;2023-02-28T07:36:39;9.20;;;4.00;;
55931;SDS011;41837;55.700;37.984;2023-02-28T07:39:05;8.05;;;4.18;;
55931;SDS011;41837;55.700;37.984;2023-02-28T07:41:31;14.45;;;4.20;;
55931;SDS011;41837;55.700;37.984;2023-02-28T07:43:59;7.90;;;4.35;;
55931;SDS011;41837;55.700;37.984;2023-02-28T07:46:25;8.32;;;4.00;;
55931;SDS011;41837;55.700;37.984;2023-02-28T07:48:52;10.60;;;3.75;;
55931;SDS011;41837;55.700;37.984;2023-02-28T07:51:21;7.93;;;3.88;;
55931;SDS011;41837;55.700;37.984;2023-02-28T07:53:47;7.32;;;4.22;;
55931;SDS011;41837;55.700;37.984;2023-02-28T07:56:13;9.20;;;4.88;;
55931;SDS011;41837;55.700;37.984;2023-02-28T07:58:40;7.75;;;4.13;;
55931;SDS011;41837;55.700;37.984;2023-02-28T08:01:09;10.00;;;4.60;;
55931;SDS011;41837;55.700;37.984;2023-02-28T08:03:36;10.27;;;4.05;;
55931;SDS011;41837;55.700;37.984;2023-02-28T08:06:04;8.85;;;4.30;;
55931;SDS011;41837;55.700;37.984;2023-02-28T08:08:32;12.27;;;4.90;;
55931;SDS011;41837;55.700;37.984;2023-02-28T08:10:59;10.32;;;4.80;;
55931;SDS011;41837;55.700;37.984;2023-02-28T08:13:26;10.15;;;4.35;;
55931;SDS011;41837;55.700;37.984;2023-02-28T08:15:54;7.13;;;3.83;;
55931;SDS011;41837;55.700;37.984;2023-02-28T08:18:21;8.25;;;4.00;;
55931;SDS011;41837;55.700;37.984;2023-02-28T08:20:48;9.77;;;4.05;;
55931;SDS011;41837;55.700;37.984;2023-02-28T08:23:15;8.25;;;3.85;;
55931;SDS011;41837;55.700;37.984;2023-02-28T08:25:41;7.10;;;3.80;;
55931;SDS011;41837;55.700;37.984;2023-02-28T08:28:07;11.23;;;4.80;;
55931;SDS011;41837;55.700;37.984;2023-02-28T08:30:33;8.35;;;4.07;;
55931;SDS011;41837;55.700;37.984;2023-02-28T08:33:00;8.38;;;4.28;;
55931;SDS011;41837;55.700;37.984;2023-02-28T08:35:27;8.55;;;4.32;;
55931;SDS011;41837;55.700;37.984;2023-02-28T08:37:53;7.13;;;3.88;;
55931;SDS011;41837;55.700;37.984;2023-02-28T08:40:19;7.45;;;3.80;;
55931;SDS011;41837;55.700;37.984;2023-02-28T08:42:45;8.85;;;4.78;;
55931;SDS011;41837;55.700;37.984;2023-02-28T08:45:12;9.00;;;4.15;;
55931;SDS011;41837;55.700;37.984;2023-02-28T08:47:39;7.90;;;3.65;;
55931;SDS011;41837;55.700;37.984;2023-02-28T08:50:06;6.82;;;3.42;;
55931;SDS011;41837;55.700;37.984;2023-02-28T08:52:33;7.03;;;3.80;;
55931;SDS011;41837;55.700;37.984;2023-02-28T08:55:00;6.80;;;3.70;;
55931;SDS011;41837;55.700;37.984;2023-02-28T08:57:26;7.30;;;3.95;;
55931;SDS011;41837;55.700;37.984;2023-02-28T08:59:52;8.80;;;4.00;;
55931;SDS011;41837;55.700;37.984;2023-02-28T09:02:19;8.55;;;4.20;;
55931;SDS011;41837;55.700;37.984;2023-02-28T09:04:45;7.35;;;4.15;;
55931;SDS011;41837;55.700;37.984;2023-02-28T09:07:11;10.13;;;4.75;;
55931;SDS011;41837;55.700;37.984;2023-02-28T09:09:37;7.70;;;4.38;;
55931;SDS011;41837;55.700;37.984;2023-02-28T09:12:25;10.80;;;4.72;;
55931;SDS011;41837;55.700;37.984;2023-02-28T09:14:52;9.02;;;4.75;;
55931;SDS011;41837;55.700;37.984;2023-02-28T09:17:18;11.90;;;4.45;;
55931;SDS011;41837;55.700;37.984;2023-02-28T09:19:47;9.93;;;4.72;;
55931;SDS011;41837;55.700;37.984;2023-02-28T09:22:13;9.20;;;4.40;;
55931;SDS011;41837;55.700;37.984;2023-02-28T09:24:40;10.50;;;5.03;;
55931;SDS011;41837;55.700;37.984;2023-02-28T09:27:06;12.82;;;5.25;;
55931;SDS011;41837;55.700;37.984;2023-02-28T09:29:33;7.22;;;4.07;;
55931;SDS011;41837;55.700;37.984;2023-02-28T09:32:00;8.55;;;4.78;;
55931;SDS011;41837;55.700;37.984;2023-02-28T09:34:27;9.73;;;5.13;;
55931;SDS011;41837;55.700;37.984;2023-02-28T09:36:56;6.88;;;3.80;;
55931;SDS011;41837;55.700;37.984;2023-02-28T09:39:22;8.63;;;4.32;;
55931;SDS011;41837;55.700;37.984;2023-02-28T09:41:52;8.82;;;4.57;;
55931;SDS011;41837;55.700;37.984;2023-02-28T09:49:47;8.75;;;3.90;;
55931;SDS011;41837;55.700;37.984;2023-02-28T09:52:16;7.95;;;4.30;;
55931;SDS011;41837;55.700;37.984;2023-02-28T09:54:45;10.40;;;4.80;;
55931;SDS011;41837;55.700;37.984;2023-02-28T09:57:44;7.78;;;3.92;;
55931;SDS011;41837;55.700;37.984;2023-02-28T10:00:19;8.43;;;4.32;;
55931;SDS011;41837;55.700;37.984;2023-02-28T10:05:30;11.48;;;3.92;;
55931;SDS011;41837;55.700;37.984;2023-02-28T10:10:44;6.47;;;3.50;;
55931;SDS011;41837;55.700;37.984;2023-02-28T10:13:15;6.88;;;3.80;;
55931;SDS011;41837;55.700;37.984;2023-02-28T10:15:50;6.43;;;3.50;;
55931;SDS011;41837;55.700;37.984;2023-02-28T10:18:27;7.30;;;3.88;;
55931;SDS011;41837;55.700;37.984;2023-02-28T10:21:09;8.77;;;3.38;;
55931;SDS011;41837;55.700;37.984;2023-02-28T10:23:52;6.88;;;3.20;;
55931;SDS011;41837;55.700;37.984;2023-02-28T10:26:27;8.38;;;4.15;;
55931;SDS011;41837;55.700;37.984;2023-02-28T10:28:58;6.05;;;3.30;;
55931;SDS011;41837;55.700;37.984;2023-02-28T10:31:26;8.10;;;3.97;;
55931;SDS011;41837;55.700;37.984;2023-02-28T10:33:53;9.88;;;3.38;;
55931;SDS011;41837;55.700;37.984;2023-02-28T10:36:20;9.13;;;3.75;;
55931;SDS011;41837;55.700;37.984;2023-02-28T10:38:47;6.13;;;3.47;;
55931;SDS011;41837;55.700;37.984;2023-02-28T10:41:26;8.10;;;3.88;;
55931;SDS011;41837;55.700;37.984;2023-02-28T10:46:46;10.43;;;3.80;;
55931;SDS011;41837;55.700;37.984;2023-02-28T10:49:17;7.80;;;3.97;;
55931;SDS011;41837;55.700;37.984;2023-02-28T10:51:47;6.30;;;3.95;;
55931;SDS011;41837;55.700;37.984;2023-02-28T10:54:22;8.65;;;4.00;;
55931;SDS011;41837;55.700;37.984;2023-02-28T10:57:05;8.02;;;3.75;;
55931;SDS011;41837;55.700;37.984;2023-02-28T10:59:34;6.32;;;3.80;;
55931;SDS011;41837;55.700;37.984;2023-02-28T11:02:01;11.35;;;4.13;;
55931;SDS011;41837;55.700;37.984;2023-02-28T11:07:02;6.78;;;4.03;;
55931;SDS011;41837;55.700;37.984;2023-02-28T11:09:40;7.40;;;3.47;;
55931;SDS011;41837;55.700;37.984;2023-02-28T11:12:19;8.88;;;3.72;;
55931;SDS011;41837;55.700;37.984;2023-02-28T11:14:47;6.68;;;3.80;;
55931;SDS011;41837;55.700;37.984;2023-02-28T11:17:20;9.30;;;4.38;;
55931;SDS011;41837;55.700;37.984;2023-02-28T11:19:53;8.40;;;3.72;;
55931;SDS011;41837;55.700;37.984;2023-02-28T11:22:42;9.32;;;3.90;;
55931;SDS011;41837;55.700;37.984;2023-02-28T11:25:21;9.63;;;4.45;;
55931;SDS011;41837;55.700;37.984;2023-02-28T11:27:53;9.65;;;4.22;;
55931;SDS011;41837;55.700;37.984;2023-02-28T11:32:54;6.28;;;3.63;;
55931;SDS011;41837;55.700;37.984;2023-02-28T11:35:23;7.40;;;3.95;;
55931;SDS011;41837;55.700;37.984;2023-02-28T11:37:53;8.50;;;3.92;;
55931;SDS011;41837;55.700;37.984;2023-02-28T11:43:30;7.50;;;3.60;;
55931;SDS011;41837;55.700;37.984;2023-02-28T11:46:22;7.68;;;4.35;;
55931;SDS011;41837;55.700;37.984;2023-02-28T11:51:58;8.10;;;4.47;;
55931;SDS011;41837;55.700;37.984;2023-02-28T12:00:04;7.18;;;4.10;;
55931;SDS011;41837;55.700;37.984;2023-02-28T12:07:56;11.57;;;4.78;;
55931;SDS011;41837;55.700;37.984;2023-02-28T12:13:29;10.13;;;5.38;;
55931;SDS011;41837;55.700;37.984;2023-02-28T12:16:25;6.82;;;4.50;;
55931;SDS011;41837;55.700;37.984;2023-02-28T12:24:40;22.67;;;10.85;;
55931;SDS011;41837;55.700;37.984;2023-02-28T12:27:27;8.63;;;4.70;;
55931;SDS011;41837;55.700;37.984;2023-02-28T12:30:04;10.10;;;4.93;;
55931;SDS011;41837;55.700;37.984;2023-02-28T12:32:42;7.43;;;4.38;;
55931;SDS011;41837;55.700;37.984;2023-02-28T12:35:13;8.25;;;4.63;;
55931;SDS011;41837;55.700;37.984;2023-02-28T12:40:13;8.75;;;4.13;;
55931;SDS011;41837;55.700;37.984;2023-02-28T12:42:58;12.15;;;4.13;;
55931;SDS011;41837;55.700;37.984;2023-02-28T12:45:43;6.90;;;3.47;;
55931;SDS011;41837;55.700;37.984;2023-02-28T12:48:23;7.53;;;3.75;;
55931;SDS011;41837;55.700;37.984;2023-02-28T12:50:53;7.10;;;4.07;;
55931;SDS011;41837;55.700;37.984;2023-02-28T12:58:41;10.00;;;4.70;;
55931;SDS011;41837;55.700;37.984;2023-02-28T13:04:28;7.53;;;4.15;;
55931;SDS011;41837;55.700;37.984;2023-02-28T13:09:58;8.63;;;4.63;;
55931;SDS011;41837;55.700;37.984;2023-02-28T13:12:26;8.63;;;4.18;;
55931;SDS011;41837;55.700;37.984;2023-02-28T13:15:07;12.18;;;4.30;;
55931;SDS011;41837;55.700;37.984;2023-02-28T13:17:50;8.13;;;4.07;;
55931;SDS011;41837;55.700;37.984;2023-02-28T13:20:23;8.23;;;4.20;;
55931;SDS011;41837;55.700;37.984;2023-02-28T13:22:52;8.20;;;4.07;;
55931;SDS011;41837;55.700;37.984;2023-02-28T13:27:51;7.00;;;3.95;;
55931;SDS011;41837;55.700;37.984;2023-02-28T13:36:24;6.47;;;3.65;;
55931;SDS011;41837;55.700;37.984;2023-02-28T13:52:57;7.90;;;3.67;;
55931;SDS011;41837;55.700;37.984;2023-02-28T13:58:35;11.45;;;4.85;;
55931;SDS011;41837;55.700;37.984;2023-02-28T14:01:23;8.98;;;4.07;;
55931;SDS011;41837;55.700;37.984;2023-02-28T14:04:08;8.43;;;4.15;;
55931;SDS011;41837;55.700;37.984;2023-02-28T14:06:55;8.15;;;4.43;;
55931;SDS011;41837;55.700;37.984;2023-02-28T14:09:27;8.00;;;3.88;;
55931;SDS011;41837;55.700;37.984;2023-02-28T14:11:57;7.20;;;3.75;;
55931;SDS011;41837;55.700;37.984;2023-02-28T14:17:13;7.38;;;4.10;;
55931;SDS011;41837;55.700;37.984;2023-02-28T14:19:45;10.82;;;4.38;;
55931;SDS011;41837;55.700;37.984;2023-02-28T14:28:18;9.95;;;4.05;;
55931;SDS011;41837;55.700;37.984;2023-02-28T14:36:32;8.27;;;4.25;;
55931;SDS011;41837;55.700;37.984;2023-02-28T14:39:21;7.43;;;4.32;;
55931;SDS011;41837;55.700;37.984;2023-02-28T14:41:50;8.38;;;4.30;;
55931;SDS011;41837;55.700;37.984;2023-02-28T14:46:57;9.45;;;4.63;;
55931;SDS011;41837;55.700;37.984;2023-02-28T14:49:31;7.35;;;4.05;;
55931;SDS011;41837;55.700;37.984;2023-02-28T14:52:02;8.05;;;4.50;;
55931;SDS011;41837;55.700;37.984;2023-02-28T14:54:39;11.15;;;6.03;;
55931;SDS011;41837;55.700;37.984;2023-02-28T14:57:06;10.98;;;5.80;;
55931;SDS011;41837;55.700;37.984;2023-02-28T14:59:46;10.65;;;5.20;;
55931;SDS011;41837;55.700;37.984;2023-02-28T15:02:40;7.47;;;5.10;;
55931;SDS011;41837;55.700;37.984;2023-02-28T15:07:46;5.68;;;3.70;;
55931;SDS011;41837;55.700;37.984;2023-02-28T15:12:54;8.18;;;3.95;;
55931;SDS011;41837;55.700;37.984;2023-02-28T15:18:02;9.00;;;4.45;;
55931;SDS011;41837;55.700;37.984;2023-02-28T15:20:36;8.13;;;4.15;;
55931;SDS011;41837;55.700;37.984;2023-02-28T15:23:05;6.30;;;4.07;;
55931;SDS011;41837;55.700;37.984;2023-02-28T15:25:31;9.15;;;4.22;;
55931;SDS011;41837;55.700;37.984;2023-02-28T15:27:57;9.35;;;4.57;;
55931;SDS011;41837;55.700;37.984;2023-02-28T15:30:25;8.10;;;3.90;;
55931;SDS011;41837;55.700;37.984;2023-02-28T15:33:05;5.72;;;3.90;;
55931;SDS011;41837;55.700;37.984;2023-02-28T15:35:43;7.00;;;4.15;;
55931;SDS011;41837;55.700;37.984;2023-02-28T15:38:27;10.77;;;3.90;;
55931;SDS011;41837;55.700;37.984;2023-02-28T15:40:55;6.40;;;4.05;;
55931;SDS011;41837;55.700;37.984;2023-02-28T15:43:24;8.15;;;4.70;;
55931;SDS011;41837;55.700;37.984;2023-02-28T15:45:57;6.97;;;4.43;;
55931;SDS011;41837;55.700;37.984;2023-02-28T15:48:34;7.53;;;4.40;;
55931;SDS011;41837;55.700;37.984;2023-02-28T15:51:20;8.52;;;4.25;;
55931;SDS011;41837;55.700;37.984;2023-02-28T15:54:04;11.25;;;4.40;;
55931;SDS011;41837;55.700;37.984;2023-02-28T15:56:38;7.20;;;4.00;;
55931;SDS011;41837;55.700;37.984;2023-02-28T15:59:13;7.65;;;3.88;;
55931;SDS011;41837;55.700;37.984;2023-02-28T16:01:45;6.72;;;4.15;;
55931;SDS011;41837;55.700;37.984;2023-02-28T16:04:15;7.32;;;4.20;;
55931;SDS011;41837;55.700;37.984;2023-02-28T16:06:43;7.70;;;3.92;;
55931;SDS011;41837;55.700;37.984;2023-02-28T16:09:14;6.07;;;3.90;;
55931;SDS011;41837;55.700;37.984;2023-02-28T16:11:48;7.22;;;4.35;;
55931;SDS011;41837;55.700;37.984;2023-02-28T16:14:21;7.50;;;4.10;;
55931;SDS011;41837;55.700;37.984;2023-02-28T16:16:50;8.25;;;3.90;;
55931;SDS011;41837;55.700;37.984;2023-02-28T16:19:18;7.55;;;4.05;;
55931;SDS011;41837;55.700;37.984;2023-02-28T16:21:46;11.02;;;4.38;;
55931;SDS011;41837;55.700;37.984;2023-02-28T16:24:13;11.43;;;4.50;;
55931;SDS011;41837;55.700;37.984;2023-02-28T16:26:44;9.20;;;4.38;;
55931;SDS011;41837;55.700;37.984;2023-02-28T16:29:24;6.60;;;4.13;;
55931;SDS011;41837;55.700;37.984;2023-02-28T16:31:54;7.95;;;3.83;;
55931;SDS011;41837;55.700;37.984;2023-02-28T16:34:21;5.93;;;3.63;;
55931;SDS011;41837;55.700;37.984;2023-02-28T16:36:48;7.03;;;3.70;;
55931;SDS011;41837;55.700;37.984;2023-02-28T16:39:15;7.22;;;3.65;;
55931;SDS011;41837;55.700;37.984;2023-02-28T16:41:42;7.18;;;3.78;;
55931;SDS011;41837;55.700;37.984;2023-02-28T16:44:13;8.43;;;3.85;;
55931;SDS011;41837;55.700;37.984;2023-02-28T16:47:00;6.63;;;3.70;;
55931;SDS011;41837;55.700;37.984;2023-02-28T16:49:27;7.90;;;3.90;;
55931;SDS011;41837;55.700;37.984;2023-02-28T16:51:53;5.32;;;3.53;;
55931;SDS011;41837;55.700;37.984;2023-02-28T16:54:19;7.88;;;3.80;;
55931;SDS011;41837;55.700;37.984;2023-02-28T16:56:46;7.28;;;4.20;;
55931;SDS011;41837;55.700;37.984;2023-02-28T16:59:21;5.95;;;3.95;;
55931;SDS011;41837;55.700;37.984;2023-02-28T17:01:49;6.13;;;3.78;;
55931;SDS011;41837;55.700;37.984;2023-02-28T17:04:17;7.38;;;4.07;;
55931;SDS011;41837;55.700;37.984;2023-02-28T17:06:43;6.13;;;3.83;;
55931;SDS011;41837;55.700;37.984;2023-02-28T17:09:28;6.55;;;4.03;;
55931;SDS011;41837;55.700;37.984;2023-02-28T17:11:54;7.50;;;3.43;;
55931;SDS011;41837;55.700;37.984;2023-02-28T17:14:21;7.18;;;3.60;;
55931;SDS011;41837;55.700;37.984;2023-02-28T17:16:48;7.55;;;3.67;;